Time;durP1;ratioP1;P1;durP2;ratioP2;P2;SDS_P1;SDS_P2;PMS_P1;PMS_P2;Temp;Humidity;BMP_temperature;BMP_pressure;BME280_temperature;BME280_humidity;BME280_pressure;Samples;Min_cycle;Max_cycle;Signal;HPM_P1;HPM_P2
2023/04/01 00:01:06;;;;;;;12.53;6.10;;;9.60;99.90;;;;;;5083511;28;20470;-71
2023/04/01 00:03:34;;;;;;;7.03;6.47;;;9.50;99.90;;;;;;5085681;28;20457;-71
2023/04/01 00:06:01;;;;;;;6.40;5.90;;;9.50;99.90;;;;;;5084421;28;20469;-70
2023/04/01 00:08:29;;;;;;;6.40;5.67;;;9.60;99.90;;;;;;5088500;28;20462;-70
2023/04/01 00:10:56;;;;;;;7.10;6.40;;;9.50;99.90;;;;;;5093717;28;20804;-70
2023/04/01 00:13:26;;;;;;;6.13;5.83;;;9.50;99.90;;;;;;5088032;28;21003;-71
2023/04/01 00:15:52;;;;;;;5.97;5.57;;;9.50;99.90;;;;;;5088622;28;20999;-70
2023/04/01 00:18:20;;;;;;;5.63;5.33;;;9.50;99.90;;;;;;5090748;28;20829;-70
2023/04/01 00:20:48;;;;;;;5.63;5.33;;;9.50;99.90;;;;;;5089822;28;20463;-72
2023/04/01 00:23:16;;;;;;;5.30;5.00;;;9.50;99.90;;;;;;5096894;28;20826;-72
2023/04/01 00:25:45;;;;;;;6.80;6.17;;;9.50;99.90;;;;;;5085045;28;20466;-71
2023/04/01 00:28:11;;;;;;;6.47;5.90;;;9.50;99.90;;;;;;5091027;28;20899;-73
2023/04/01 00:30:40;;;;;;;6.20;5.60;;;9.50;99.90;;;;;;5090934;28;21034;-71
2023/04/01 00:33:07;;;;;;;6.40;6.00;;;9.50;99.90;;;;;;5089439;28;20491;-71
2023/04/01 00:35:34;;;;;;;6.87;6.30;;;9.50;99.90;;;;;;5093955;28;20858;-71
2023/04/01 00:38:01;;;;;;;6.77;6.23;;;9.50;99.90;;;;;;5093785;28;20517;-72
2023/04/01 00:40:30;;;;;;;5.83;5.60;;;9.50;99.90;;;;;;5094231;28;20539;-71
2023/04/01 00:42:58;;;;;;;6.30;5.80;;;9.50;99.90;;;;;;5086481;28;21079;-71
2023/04/01 00:45:34;;;;;;;6.23;5.70;;;9.50;99.90;;;;;;5088783;28;20964;-71
2023/04/01 00:48:06;;;;;;;5.90;5.37;;;9.50;99.90;;;;;;5086536;28;20837;-72
2023/04/01 00:50:36;;;;;;;7.27;6.77;;;9.50;99.90;;;;;;5098627;28;20460;-73
2023/04/01 00:53:03;;;;;;;6.93;5.80;;;9.50;99.90;;;;;;5090796;28;21221;-71
2023/04/01 00:55:34;;;;;;;6.27;5.50;;;9.50;99.90;;;;;;5091481;28;20456;-72
2023/04/01 00:58:04;;;;;;;5.70;5.10;;;9.50;99.90;;;;;;5090509;28;21270;-72
2023/04/01 01:00:31;;;;;;;6.37;5.67;;;9.50;99.90;;;;;;5092294;28;20965;-72
2023/04/01 01:02:58;;;;;;;6.03;5.63;;;9.50;99.90;;;;;;5094386;28;20473;-70
2023/04/01 01:05:39;;;;;;;6.80;6.10;;;9.50;99.90;;;;;;5096385;28;20457;-73
2023/04/01 01:08:16;;;;;;;6.43;5.47;;;9.50;99.90;;;;;;5088610;28;20864;-73
2023/04/01 01:10:47;;;;;;;6.17;5.57;;;9.50;99.90;;;;;;5093869;28;20910;-71
2023/04/01 01:13:23;;;;;;;5.83;5.43;;;9.50;99.90;;;;;;5090517;28;20482;-71
2023/04/01 01:15:57;;;;;;;5.87;5.50;;;9.50;99.90;;;;;;5089291;28;20461;-71
2023/04/01 01:18:30;;;;;;;6.60;6.10;;;9.50;99.90;;;;;;5094600;28;20465;-72
2023/04/01 01:21:30;;;;;;;6.23;5.83;;;9.50;99.90;;;;;;5088290;28;20463;-72
2023/04/01 01:24:22;;;;;;;6.33;5.60;;;9.50;99.90;;;;;;5093023;28;20461;-72
2023/04/01 01:27:03;;;;;;;5.63;5.27;;;9.40;99.90;;;;;;5085863;28;20801;-74
2023/04/01 01:29:45;;;;;;;5.93;5.63;;;9.50;99.90;;;;;;5095144;28;20457;-73
2023/04/01 01:32:21;;;;;;;5.80;5.40;;;9.40;99.90;;;;;;5092113;28;20484;-72
2023/04/01 01:34:55;;;;;;;5.67;5.47;;;9.40;99.90;;;;;;5095864;28;20535;-72
2023/04/01 01:37:27;;;;;;;7.33;5.57;;;9.40;99.90;;;;;;5092146;28;20501;-72
2023/04/01 01:39:58;;;;;;;17.73;5.77;;;9.40;99.90;;;;;;5088887;28;20454;-71
2023/04/01 01:42:28;;;;;;;6.10;5.80;;;9.50;99.90;;;;;;5097636;28;20485;-73
2023/04/01 01:44:57;;;;;;;5.60;5.23;;;9.40;99.90;;;;;;5086927;28;20995;-72
2023/04/01 01:47:25;;;;;;;8.20;5.37;;;9.40;99.90;;;;;;5095967;28;20477;-74
2023/04/01 01:49:55;;;;;;;6.70;5.43;;;9.30;99.90;;;;;;5097477;28;20954;-75
2023/04/01 01:52:25;;;;;;;16.40;4.97;;;9.40;99.90;;;;;;5090150;28;20555;-74
2023/04/01 01:54:54;;;;;;;20.07;5.53;;;9.30;99.90;;;;;;5088701;28;20730;-73
2023/04/01 01:57:25;;;;;;;15.93;5.10;;;9.30;99.90;;;;;;5095530;28;20462;-73
2023/04/01 01:59:57;;;;;;;4.83;4.30;;;9.30;99.90;;;;;;5089315;28;20828;-73
2023/04/01 02:02:24;;;;;;;5.40;4.33;;;9.30;99.90;;;;;;5086989;28;20469;-73
2023/04/01 02:04:52;;;;;;;4.37;4.10;;;9.30;99.90;;;;;;5094092;28;20461;-73
2023/04/01 02:07:22;;;;;;;5.13;4.00;;;9.30;99.90;;;;;;5085926;28;21108;-73
2023/04/01 02:09:51;;;;;;;4.70;4.30;;;9.30;99.90;;;;;;5089942;28;20466;-73
2023/04/01 02:12:20;;;;;;;4.20;3.90;;;9.30;99.90;;;;;;5094010;28;20485;-73
2023/04/01 02:14:52;;;;;;;5.53;3.90;;;9.30;99.90;;;;;;5090925;28;20462;-74
2023/04/01 02:17:21;;;;;;;4.57;4.37;;;9.30;99.90;;;;;;5097571;28;20911;-73
2023/04/01 02:19:52;;;;;;;8.23;4.23;;;9.30;99.90;;;;;;5095440;28;20456;-73
2023/04/01 02:22:22;;;;;;;4.43;4.23;;;9.20;99.90;;;;;;5094098;28;20813;-72
2023/04/01 02:24:54;;;;;;;5.00;3.80;;;9.30;99.90;;;;;;5093093;28;21004;-74
2023/04/01 02:27:21;;;;;;;4.30;4.00;;;9.30;99.90;;;;;;5096237;28;20826;-72
2023/04/01 02:29:48;;;;;;;3.87;3.67;;;9.30;99.90;;;;;;5097220;28;20483;-72
2023/04/01 02:32:17;;;;;;;4.47;4.17;;;9.30;99.90;;;;;;5095252;28;20481;-72
2023/04/01 02:34:44;;;;;;;4.57;4.17;;;9.30;99.90;;;;;;5091558;28;20527;-71
2023/04/01 02:37:13;;;;;;;4.50;4.10;;;9.30;99.90;;;;;;5092637;28;20509;-72
2023/04/01 02:39:42;;;;;;;4.90;4.60;;;9.30;99.90;;;;;;5090702;28;20465;-72
2023/04/01 02:42:11;;;;;;;4.60;4.40;;;9.30;99.90;;;;;;5090661;28;20930;-73
2023/04/01 02:44:38;;;;;;;4.90;4.23;;;9.30;99.90;;;;;;5093845;28;20531;-72
2023/04/01 02:47:05;;;;;;;5.20;4.90;;;9.30;99.90;;;;;;5087968;28;20450;-72
2023/04/01 02:49:32;;;;;;;4.50;4.30;;;9.30;99.90;;;;;;5093540;28;20462;-72
2023/04/01 02:51:59;;;;;;;4.73;4.53;;;9.30;99.90;;;;;;5096269;28;20553;-74
2023/04/01 02:54:26;;;;;;;4.00;3.90;;;9.20;99.90;;;;;;5093174;28;20462;-75
2023/04/01 02:56:54;;;;;;;4.40;4.30;;;9.30;99.90;;;;;;5099198;28;20463;-72
2023/04/01 02:59:22;;;;;;;4.80;4.60;;;9.20;99.90;;;;;;5087619;28;20558;-72
2023/04/01 03:01:49;;;;;;;4.27;4.07;;;9.20;99.90;;;;;;5088214;28;20466;-72
2023/04/01 03:04:16;;;;;;;4.43;4.13;;;9.30;99.90;;;;;;5091440;28;20519;-72
2023/04/01 03:06:44;;;;;;;4.57;4.37;;;9.30;99.90;;;;;;5091364;28;20836;-72
2023/04/01 03:09:11;;;;;;;4.77;4.47;;;9.30;99.90;;;;;;5099669;28;20466;-72
2023/04/01 03:11:38;;;;;;;4.10;3.90;;;9.30;99.90;;;;;;5087248;28;20545;-72
2023/04/01 03:14:06;;;;;;;4.40;4.10;;;9.30;99.90;;;;;;5094041;28;20485;-72
2023/04/01 03:16:35;;;;;;;4.80;4.60;;;9.30;99.90;;;;;;5087187;28;20486;-72
2023/04/01 03:19:02;;;;;;;4.50;4.30;;;9.20;99.90;;;;;;5095570;28;21072;-72
2023/04/01 03:21:28;;;;;;;4.70;4.47;;;9.30;99.90;;;;;;5091643;28;20554;-72
2023/04/01 03:23:56;;;;;;;4.93;4.53;;;9.30;99.90;;;;;;5085939;28;20454;-73
2023/04/01 03:26:23;;;;;;;4.10;3.80;;;9.30;99.90;;;;;;5092594;28;20854;-72
2023/04/01 03:28:50;;;;;;;4.50;4.30;;;9.30;99.90;;;;;;5094323;28;20967;-72
2023/04/01 03:31:17;;;;;;;3.97;3.67;;;9.30;99.90;;;;;;5092737;28;20469;-72
2023/04/01 03:33:46;;;;;;;4.03;3.83;;;9.20;99.90;;;;;;5103000;28;20505;-72
2023/04/01 03:36:13;;;;;;;4.10;3.87;;;9.30;99.90;;;;;;5092513;28;20466;-73
2023/04/01 03:38:41;;;;;;;4.37;4.20;;;9.30;99.90;;;;;;5085867;28;20461;-72
2023/04/01 03:41:08;;;;;;;4.53;4.30;;;9.40;99.90;;;;;;5091918;28;20461;-74
2023/04/01 03:43:35;;;;;;;4.07;3.87;;;9.40;99.90;;;;;;5085060;28;20832;-72
2023/04/01 03:46:02;;;;;;;3.70;3.53;;;9.40;99.90;;;;;;5088769;28;20545;-72
2023/04/01 03:48:29;;;;;;;4.10;3.90;;;9.30;99.90;;;;;;5089098;28;20485;-72
2023/04/01 03:50:57;;;;;;;4.40;4.00;;;9.30;99.90;;;;;;5093140;28;21069;-73
2023/04/01 03:53:24;;;;;;;4.27;3.97;;;9.40;99.90;;;;;;5087144;28;20487;-72
2023/04/01 03:55:51;;;;;;;4.53;4.23;;;9.30;99.90;;;;;;5095379;28;20584;-73
2023/04/01 03:58:18;;;;;;;4.23;4.03;;;9.30;99.90;;;;;;5093423;28;20465;-73
2023/04/01 04:00:45;;;;;;;4.50;4.27;;;9.40;99.90;;;;;;5085852;28;20458;-72
2023/04/01 04:03:12;;;;;;;4.23;3.93;;;9.30;99.90;;;;;;5091583;28;20463;-75
2023/04/01 04:05:46;;;;;;;4.40;4.10;;;9.40;99.90;;;;;;5088924;28;20458;-72
2023/04/01 04:08:16;;;;;;;3.80;3.70;;;9.30;99.90;;;;;;5092242;28;20603;-72
2023/04/01 04:10:43;;;;;;;4.37;4.00;;;9.30;99.90;;;;;;5096302;28;20983;-73
2023/04/01 04:13:10;;;;;;;3.60;3.50;;;9.30;99.90;;;;;;5095107;28;20481;-75
2023/04/01 04:15:37;;;;;;;3.70;3.50;;;9.30;99.90;;;;;;5091154;28;20930;-72
2023/04/01 04:18:05;;;;;;;4.33;4.03;;;9.30;99.90;;;;;;5087792;28;20460;-72
2023/04/01 04:20:32;;;;;;;3.70;3.60;;;9.30;99.90;;;;;;5088578;28;20965;-73
2023/04/01 04:23:00;;;;;;;4.30;4.00;;;9.30;99.90;;;;;;5099680;28;20458;-73
2023/04/01 04:25:28;;;;;;;3.77;3.67;;;9.40;99.90;;;;;;5089281;28;20569;-74
2023/04/01 04:27:56;;;;;;;7.10;3.87;;;9.40;99.90;;;;;;5097285;28;20466;-73
2023/04/01 04:30:23;;;;;;;3.90;3.70;;;9.40;99.90;;;;;;5095496;28;20469;-73
2023/04/01 04:32:50;;;;;;;3.70;3.60;;;9.40;99.90;;;;;;5098026;28;20492;-72
2023/04/01 04:35:17;;;;;;;4.80;4.50;;;9.40;99.90;;;;;;5102731;28;20473;-69
2023/04/01 04:37:44;;;;;;;4.30;4.10;;;9.40;99.90;;;;;;5096080;28;20466;-71
2023/04/01 04:40:11;;;;;;;4.47;4.20;;;9.40;99.90;;;;;;5096609;28;20473;-70
2023/04/01 04:42:39;;;;;;;4.40;4.20;;;9.40;99.90;;;;;;5090863;28;20572;-73
2023/04/01 04:45:07;;;;;;;4.57;4.27;;;9.30;99.90;;;;;;5094553;28;20462;-71
2023/04/01 04:47:35;;;;;;;5.10;4.70;;;9.30;99.90;;;;;;5092506;28;20931;-70
2023/04/01 04:50:01;;;;;;;5.03;4.60;;;9.30;99.90;;;;;;5092019;28;20469;-69
2023/04/01 04:52:28;;;;;;;6.07;5.57;;;9.30;99.90;;;;;;5092121;28;21094;-70
2023/04/01 04:54:55;;;;;;;4.30;4.07;;;9.30;99.90;;;;;;5093258;28;20496;-72
2023/04/01 04:57:22;;;;;;;4.23;3.97;;;9.30;99.90;;;;;;5090745;28;20473;-71
2023/04/01 04:59:51;;;;;;;3.77;3.57;;;9.30;99.90;;;;;;5096088;28;20507;-71
2023/04/01 05:02:17;;;;;;;4.40;4.10;;;9.30;99.90;;;;;;5089632;28;20813;-69
2023/04/01 05:04:45;;;;;;;4.63;4.33;;;9.30;99.90;;;;;;5089421;28;20461;-71
2023/04/01 05:07:12;;;;;;;3.87;3.50;;;9.30;99.90;;;;;;5092975;28;20504;-71
2023/04/01 05:09:39;;;;;;;12.93;4.60;;;9.30;99.90;;;;;;5093446;28;20475;-69
2023/04/01 05:12:06;;;;;;;4.60;4.20;;;9.30;99.90;;;;;;5092600;28;20480;-71
2023/04/01 05:14:33;;;;;;;5.10;4.60;;;9.30;99.90;;;;;;5091102;28;20490;-68
2023/04/01 05:17:01;;;;;;;4.47;4.20;;;9.30;99.90;;;;;;5094101;28;20461;-72
2023/04/01 05:19:28;;;;;;;4.63;4.33;;;9.30;99.90;;;;;;5095548;28;20460;-70
2023/04/01 05:21:55;;;;;;;4.73;4.43;;;9.30;99.90;;;;;;5095999;28;20464;-72
2023/04/01 05:24:22;;;;;;;4.33;4.03;;;9.40;99.90;;;;;;5092712;28;20473;-73
2023/04/01 05:26:49;;;;;;;5.00;4.70;;;9.30;99.90;;;;;;5099856;28;20476;-71
2023/04/01 05:29:16;;;;;;;5.10;4.70;;;9.20;99.90;;;;;;5091546;28;20466;-71
2023/04/01 05:31:43;;;;;;;5.40;5.00;;;9.30;99.90;;;;;;5089383;28;20462;-74
2023/04/01 05:34:11;;;;;;;5.10;4.80;;;9.30;99.90;;;;;;5094063;27;20584;-71
2023/04/01 05:36:38;;;;;;;4.87;4.50;;;9.30;99.90;;;;;;5094551;28;20458;-73
2023/04/01 05:39:05;;;;;;;5.43;5.13;;;9.40;99.90;;;;;;5091423;28;20466;-73
2023/04/01 05:41:36;;;;;;;6.60;5.43;;;9.30;99.90;;;;;;5094133;28;20466;-72
2023/04/01 05:44:02;;;;;;;5.83;5.43;;;9.40;99.90;;;;;;5091886;28;21043;-71
2023/04/01 05:46:29;;;;;;;4.23;3.93;;;9.30;99.90;;;;;;5096146;28;20459;-72
2023/04/01 05:48:56;;;;;;;6.43;5.83;;;9.30;99.90;;;;;;5098976;28;20461;-71
2023/04/01 05:51:26;;;;;;;6.23;5.73;;;9.30;99.90;;;;;;5091759;28;20522;-71
2023/04/01 05:53:53;;;;;;;6.07;5.60;;;9.40;99.90;;;;;;5088317;28;21240;-72
2023/04/01 05:56:21;;;;;;;7.00;6.13;;;9.30;99.90;;;;;;5093405;28;20584;-69
2023/04/01 05:58:52;;;;;;;8.10;6.07;;;9.30;99.90;;;;;;5095330;28;20462;-70
2023/04/01 06:01:19;;;;;;;6.90;6.20;;;9.30;99.90;;;;;;5089398;28;20470;-71
2023/04/01 06:03:46;;;;;;;7.33;6.63;;;9.40;99.90;;;;;;5091685;28;20488;-71
2023/04/01 06:06:15;;;;;;;6.40;5.90;;;9.30;99.90;;;;;;5090962;28;20470;-71
2023/04/01 06:08:44;;;;;;;9.73;7.17;;;9.30;99.90;;;;;;5095447;28;20837;-72
2023/04/01 06:11:26;;;;;;;6.70;6.20;;;9.40;99.90;;;;;;5092802;28;20462;-71
2023/04/01 06:14:08;;;;;;;6.37;5.87;;;9.30;99.90;;;;;;5083985;28;20663;-72
2023/04/01 06:16:51;;;;;;;6.20;5.77;;;9.30;99.90;;;;;;5087125;28;20453;-71
2023/04/01 06:19:28;;;;;;;5.77;5.33;;;9.40;99.90;;;;;;5097974;28;20810;-71
2023/04/01 06:22:37;;;;;;;7.17;6.53;;;9.40;99.90;;;;;;5092130;28;20472;-71
2023/04/01 06:25:40;;;;;;;6.70;6.30;;;9.40;99.90;;;;;;5090529;28;20477;-72
2023/04/01 06:28:26;;;;;;;6.30;5.83;;;9.40;99.90;;;;;;5098599;28;20456;-72
2023/04/01 06:31:00;;;;;;;6.50;6.10;;;9.40;99.90;;;;;;5092956;28;20469;-72
2023/04/01 06:33:44;;;;;;;6.27;5.87;;;9.30;99.90;;;;;;5095193;28;20472;-71
2023/04/01 06:36:40;;;;;;;7.40;6.80;;;9.40;99.90;;;;;;5092331;28;20855;-74
2023/04/01 06:39:22;;;;;;;9.37;7.10;;;9.40;99.90;;;;;;5086710;28;20542;-72
2023/04/01 06:42:24;;;;;;;7.70;7.10;;;9.30;99.90;;;;;;5089149;28;20499;-74
2023/04/01 06:45:04;;;;;;;7.37;5.80;;;9.30;99.90;;;;;;5094481;28;20463;-73
2023/04/01 06:47:46;;;;;;;6.83;6.23;;;9.40;99.90;;;;;;5091733;28;20468;-72
2023/04/01 06:50:21;;;;;;;6.70;6.00;;;9.40;99.90;;;;;;5090591;28;20477;-71
2023/04/01 06:52:57;;;;;;;9.83;5.60;;;9.50;99.90;;;;;;5093702;28;20545;-72
2023/04/01 06:55:30;;;;;;;6.70;6.10;;;9.40;99.90;;;;;;5087989;28;21014;-72
2023/04/01 06:58:01;;;;;;;10.90;6.53;;;9.40;99.90;;;;;;5101540;28;20538;-72
2023/04/01 07:00:32;;;;;;;7.63;6.23;;;9.40;99.90;;;;;;5091496;28;20952;-72
2023/04/01 07:03:07;;;;;;;6.00;5.50;;;9.40;99.90;;;;;;5090380;28;20473;-72
2023/04/01 07:05:35;;;;;;;7.20;6.50;;;9.30;99.90;;;;;;5092606;28;20466;-73
2023/04/01 07:08:05;;;;;;;10.27;6.97;;;9.30;99.90;;;;;;5087499;28;20502;-72
2023/04/01 07:10:40;;;;;;;9.73;6.80;;;9.40;99.90;;;;;;5093900;28;20500;-72
2023/04/01 07:13:16;;;;;;;7.73;7.03;;;9.40;99.90;;;;;;5094802;28;20553;-72
2023/04/01 07:15:46;;;;;;;7.50;6.53;;;9.40;99.90;;;;;;5088243;28;20506;-73
2023/04/01 07:18:17;;;;;;;6.90;6.30;;;9.40;99.90;;;;;;5092839;28;20465;-73
2023/04/01 07:20:44;;;;;;;6.20;5.70;;;9.40;99.90;;;;;;5093184;28;20547;-72
2023/04/01 07:23:21;;;;;;;19.53;7.47;;;9.40;99.90;;;;;;5092456;28;20468;-72
2023/04/01 07:25:52;;;;;;;12.97;7.23;;;9.40;99.90;;;;;;5091187;28;20462;-72
2023/04/01 07:28:22;;;;;;;21.93;7.17;;;9.40;99.90;;;;;;5097751;28;20467;-73
2023/04/01 07:30:58;;;;;;;9.27;6.40;;;9.40;99.90;;;;;;5091303;28;20975;-72
2023/04/01 07:33:29;;;;;;;7.57;6.77;;;9.30;99.90;;;;;;5088062;28;20481;-72
2023/04/01 07:35:59;;;;;;;8.63;7.60;;;9.40;99.90;;;;;;5088848;28;20460;-75
2023/04/01 07:38:38;;;;;;;6.70;6.10;;;9.40;99.90;;;;;;5092647;28;20465;-75
2023/04/01 07:41:13;;;;;;;6.17;5.63;;;9.50;99.90;;;;;;5089763;28;20462;-72
2023/04/01 07:43:55;;;;;;;6.90;6.30;;;9.50;99.90;;;;;;5090249;28;20497;-72
2023/04/01 07:46:35;;;;;;;7.03;6.40;;;9.60;99.90;;;;;;5091698;28;20448;-72
2023/04/01 07:49:08;;;;;;;8.30;7.27;;;9.50;99.90;;;;;;5092313;28;20461;-72
2023/04/01 07:51:42;;;;;;;7.53;6.93;;;9.60;99.90;;;;;;5092110;28;20480;-72
2023/04/01 07:54:13;;;;;;;8.23;7.53;;;9.60;99.90;;;;;;5088121;28;20490;-73
2023/04/01 07:56:46;;;;;;;6.20;5.70;;;9.60;99.90;;;;;;5089329;28;20464;-73
2023/04/01 07:59:23;;;;;;;5.40;5.10;;;9.60;99.90;;;;;;5100949;28;20457;-73
2023/04/01 08:01:56;;;;;;;6.10;5.60;;;9.60;99.90;;;;;;5094959;28;20530;-75
2023/04/01 08:04:42;;;;;;;6.10;5.70;;;9.60;99.90;;;;;;5090338;28;20474;-74
2023/04/01 08:07:13;;;;;;;6.47;6.07;;;9.70;99.90;;;;;;5095555;28;20562;-75
2023/04/01 08:09:49;;;;;;;6.03;5.50;;;9.70;99.90;;;;;;5100346;28;20457;-72
2023/04/01 08:12:29;;;;;;;5.40;5.00;;;9.70;99.90;;;;;;5089682;28;20468;-71
2023/04/01 08:15:08;;;;;;;5.20;4.90;;;9.60;99.90;;;;;;5101087;28;20489;-71
2023/04/01 08:17:45;;;;;;;4.87;4.57;;;9.70;99.90;;;;;;5089185;28;20824;-72
2023/04/01 08:20:30;;;;;;;5.97;5.57;;;9.60;99.90;;;;;;5103025;28;21035;-73
2023/04/01 08:23:01;;;;;;;6.17;5.70;;;9.60;99.90;;;;;;5101705;28;20949;-73
2023/04/01 08:25:31;;;;;;;6.57;5.60;;;9.70;99.90;;;;;;5098487;28;20463;-74
2023/04/01 08:28:03;;;;;;;5.60;5.20;;;9.70;99.90;;;;;;5094150;28;20461;-76
2023/04/01 08:30:41;;;;;;;5.33;4.93;;;9.70;99.90;;;;;;5094751;28;20826;-72
2023/04/01 08:33:14;;;;;;;6.33;5.83;;;9.70;99.90;;;;;;5091340;28;20549;-72
2023/04/01 08:35:47;;;;;;;5.47;5.10;;;9.70;99.90;;;;;;5096386;28;20496;-74
2023/04/01 08:38:19;;;;;;;4.70;4.50;;;9.70;99.90;;;;;;5089341;28;20458;-74
2023/04/01 08:41:00;;;;;;;5.10;4.80;;;9.80;99.90;;;;;;5083860;28;20639;-75
2023/04/01 08:43:46;;;;;;;5.10;4.80;;;9.80;99.90;;;;;;5091588;28;20492;-71
2023/04/01 08:46:31;;;;;;;4.70;4.40;;;9.80;99.90;;;;;;5093299;28;20904;-75
2023/04/01 08:49:15;;;;;;;4.97;4.50;;;9.80;99.90;;;;;;5095607;28;20956;-75
2023/04/01 08:52:07;;;;;;;4.60;4.30;;;9.80;99.90;;;;;;5095627;28;20951;-71
2023/04/01 08:54:49;;;;;;;4.93;4.63;;;9.80;99.90;;;;;;5089540;28;20886;-71
2023/04/01 08:57:25;;;;;;;5.87;5.47;;;9.80;99.90;;;;;;5091314;28;20480;-72
2023/04/01 09:00:03;;;;;;;6.03;5.63;;;9.90;99.90;;;;;;5093140;28;20468;-70
2023/04/01 09:02:55;;;;;;;7.23;6.73;;;9.90;99.90;;;;;;5095708;28;20495;-71
2023/04/01 09:05:38;;;;;;;7.83;7.20;;;9.90;99.90;;;;;;5091714;28;20500;-72
2023/04/01 09:08:18;;;;;;;7.83;7.23;;;9.80;99.90;;;;;;5090323;28;20462;-72
2023/04/01 09:11:06;;;;;;;8.10;7.40;;;9.90;99.90;;;;;;5093473;28;20554;-71
2023/04/01 09:14:07;;;;;;;6.77;6.37;;;9.90;99.90;;;;;;5089606;28;20952;-71
2023/04/01 09:17:09;;;;;;;8.10;7.57;;;9.70;99.90;;;;;;5091127;28;20462;-71
2023/04/01 09:19:51;;;;;;;7.40;6.80;;;9.70;99.90;;;;;;5090295;28;20450;-72
2023/04/01 09:22:36;;;;;;;8.67;7.97;;;9.70;99.90;;;;;;5095531;28;20467;-71
2023/04/01 09:25:39;;;;;;;7.70;7.20;;;9.70;99.90;;;;;;5088690;28;20511;-71
2023/04/01 09:28:13;;;;;;;8.90;8.20;;;9.70;99.90;;;;;;5049382;28;20457;-70
2023/04/01 09:30:59;;;;;;;9.43;8.60;;;9.70;99.90;;;;;;5090664;28;20469;-74
2023/04/01 09:34:22;;;;;;;8.67;8.07;;;9.70;99.90;;;;;;5089400;28;20485;-72
2023/04/01 09:37:10;;;;;;;8.20;7.60;;;9.70;99.90;;;;;;5017861;28;20498;-71
2023/04/01 09:39:38;;;;;;;7.97;7.10;;;9.60;99.90;;;;;;5086339;28;20964;-71
2023/04/01 09:42:24;;;;;;;9.80;8.97;;;9.70;99.90;;;;;;5090812;28;20482;-71
2023/04/01 09:45:11;;;;;;;8.77;7.63;;;9.80;99.90;;;;;;5094900;28;20542;-71
2023/04/01 09:48:00;;;;;;;7.37;6.97;;;9.80;99.90;;;;;;5089112;28;20461;-71
2023/04/01 09:50:43;;;;;;;8.10;7.60;;;9.70;99.90;;;;;;5091269;28;20457;-72
2023/04/01 09:53:33;;;;;;;9.33;8.07;;;9.80;99.90;;;;;;5092493;28;20464;-72
2023/04/01 09:56:27;;;;;;;7.30;6.70;;;10.00;99.90;;;;;;5098830;28;20918;-74
2023/04/01 09:59:15;;;;;;;8.33;7.83;;;9.80;99.90;;;;;;5096185;28;20535;-73
2023/04/01 10:02:25;;;;;;;8.50;7.77;;;9.90;99.90;;;;;;5092478;28;20508;-71
2023/04/01 10:05:20;;;;;;;8.53;7.93;;;9.90;99.90;;;;;;5088991;28;21012;-75
2023/04/01 10:08:23;;;;;;;9.00;8.30;;;10.00;99.90;;;;;;5096187;28;20464;-72
2023/04/01 10:11:15;;;;;;;9.07;8.27;;;10.00;99.90;;;;;;5093834;28;20693;-71
2023/04/01 10:14:07;;;;;;;9.03;8.40;;;10.10;99.90;;;;;;5050219;28;20466;-71
2023/04/01 10:17:04;;;;;;;8.33;7.73;;;10.10;99.90;;;;;;5086187;28;20490;-74
2023/04/01 10:20:02;;;;;;;8.87;8.27;;;10.10;99.90;;;;;;5095823;28;20802;-71
2023/04/01 10:23:06;;;;;;;8.80;8.20;;;10.20;99.90;;;;;;5097940;28;20461;-74
2023/04/01 10:25:59;;;;;;;9.70;8.90;;;10.20;99.90;;;;;;5099125;28;20480;-74
2023/04/01 10:28:46;;;;;;;9.20;8.33;;;10.20;99.90;;;;;;5089783;28;20462;-69
2023/04/01 10:31:46;;;;;;;8.83;8.20;;;10.10;99.90;;;;;;5094213;28;20955;-73
2023/04/01 10:34:47;;;;;;;8.20;7.50;;;10.20;99.90;;;;;;5097098;28;20547;-71
2023/04/01 10:37:37;;;;;;;7.63;7.13;;;10.40;99.90;;;;;;5090347;28;20465;-73
2023/04/01 10:40:43;;;;;;;9.83;9.00;;;10.50;99.90;;;;;;5091134;28;20462;-71
2023/04/01 10:44:07;;;;;;;8.80;8.00;;;10.60;99.90;;;;;;5068699;27;21105;-70
2023/04/01 10:46:58;;;;;;;9.20;8.30;;;10.50;99.90;;;;;;5057034;28;20953;-71
2023/04/01 10:49:59;;;;;;;8.97;8.07;;;10.50;99.90;;;;;;5060613;28;20773;-70
2023/04/01 10:53:09;;;;;;;9.10;8.30;;;10.50;99.90;;;;;;5064416;28;20455;-73
2023/04/01 10:56:03;;;;;;;9.53;8.17;;;10.40;99.90;;;;;;5071824;28;20550;-70
2023/04/01 10:59:01;;;;;;;10.23;9.27;;;10.60;99.90;;;;;;5065246;28;20455;-70
2023/04/01 11:02:04;;;;;;;8.90;8.10;;;10.50;99.90;;;;;;5065825;28;20477;-70
2023/04/01 11:05:13;;;;;;;10.60;9.43;;;10.50;99.90;;;;;;5067780;28;20458;-70
2023/04/01 11:08:20;;;;;;;9.47;8.47;;;10.50;99.90;;;;;;5058321;28;20973;-70
2023/04/01 11:11:40;;;;;;;10.93;8.80;;;10.50;99.90;;;;;;5014428;28;20462;-72
2023/04/01 11:14:54;;;;;;;9.33;8.33;;;10.60;99.90;;;;;;5070257;28;20471;-73
2023/04/01 11:17:58;;;;;;;8.53;7.23;;;10.60;99.90;;;;;;5025828;28;20469;-70
2023/04/01 11:20:42;;;;;;;8.70;7.07;;;10.80;99.90;;;;;;5072033;28;20463;-71
2023/04/01 11:23:48;;;;;;;10.73;8.07;;;10.90;99.90;;;;;;5061465;28;20505;-73
2023/04/01 11:26:26;;;;;;;8.00;7.00;;;11.30;99.90;;;;;;5065791;28;20451;-71
2023/04/01 11:29:12;;;;;;;8.57;7.77;;;11.30;99.90;;;;;;5067708;28;20879;-70
2023/04/01 11:31:48;;;;;;;8.23;7.53;;;11.30;99.90;;;;;;5062826;28;20467;-72
2023/04/01 11:34:30;;;;;;;8.67;7.87;;;11.40;99.90;;;;;;5052022;28;21017;-69
2023/04/01 11:37:09;;;;;;;7.50;6.70;;;11.30;99.90;;;;;;5037626;28;20456;-70
2023/04/01 11:39:45;;;;;;;6.93;6.33;;;11.30;99.90;;;;;;5031792;28;20508;-70
2023/04/01 11:42:23;;;;;;;6.83;6.13;;;11.40;99.90;;;;;;5036260;28;20530;-72
2023/04/01 11:44:58;;;;;;;7.50;6.80;;;11.40;99.90;;;;;;5038794;28;20463;-70
2023/04/01 11:47:45;;;;;;;8.00;7.30;;;11.60;99.90;;;;;;5036692;28;20464;-70
2023/04/01 11:50:32;;;;;;;7.20;6.50;;;11.50;99.90;;;;;;5035388;28;20466;-72
2023/04/01 11:53:28;;;;;;;7.20;6.60;;;11.40;99.90;;;;;;5027933;28;20456;-72
2023/04/01 11:56:10;;;;;;;8.33;6.63;;;11.40;99.90;;;;;;5016586;28;20464;-69
2023/04/01 11:59:12;;;;;;;8.73;7.93;;;11.40;99.90;;;;;;5020393;28;20888;-69
2023/04/01 12:01:56;;;;;;;7.23;6.63;;;11.30;99.90;;;;;;5018589;28;20570;-69
2023/04/01 12:04:44;;;;;;;8.70;6.93;;;11.30;99.90;;;;;;5020441;28;20467;-70
2023/04/01 12:07:22;;;;;;;7.00;6.40;;;11.40;99.90;;;;;;5016971;28;20752;-69
2023/04/01 12:10:00;;;;;;;9.77;6.90;;;11.50;99.90;;;;;;5019124;28;20471;-72
2023/04/01 12:12:40;;;;;;;6.63;5.97;;;11.60;99.90;;;;;;5024177;28;20523;-71
2023/04/01 12:15:22;;;;;;;6.73;6.10;;;11.70;99.90;;;;;;5023277;28;20530;-72
2023/04/01 12:17:54;;;;;;;7.30;6.60;;;11.60;99.90;;;;;;5021887;28;20974;-72
2023/04/01 12:20:35;;;;;;;7.07;6.57;;;11.60;99.90;;;;;;5022781;28;20457;-71
2023/04/01 12:23:16;;;;;;;6.83;6.17;;;11.70;99.90;;;;;;5017928;28;20868;-70
2023/04/01 12:26:01;;;;;;;7.80;7.10;;;11.70;99.90;;;;;;5019119;28;20456;-70
2023/04/01 12:28:42;;;;;;;6.43;5.90;;;11.80;99.90;;;;;;5019589;28;20465;-69
2023/04/01 12:31:26;;;;;;;8.20;7.50;;;11.70;99.90;;;;;;5019045;28;20556;-69
2023/04/01 12:34:05;;;;;;;8.40;7.53;;;11.60;99.90;;;;;;5019523;28;20491;-71
2023/04/01 12:36:53;;;;;;;8.40;7.60;;;11.40;99.90;;;;;;5018525;28;20848;-71
2023/04/01 12:39:34;;;;;;;6.87;6.27;;;11.50;99.90;;;;;;5023203;28;20466;-69
2023/04/01 12:42:12;;;;;;;8.47;7.87;;;11.30;99.90;;;;;;5019760;28;20963;-71
2023/04/01 12:45:05;;;;;;;9.33;8.63;;;11.20;99.90;;;;;;5018830;28;20870;-71
2023/04/01 12:48:00;;;;;;;9.30;8.57;;;11.20;99.90;;;;;;5018418;28;20746;-71
2023/04/01 12:50:42;;;;;;;10.13;9.43;;;11.20;99.90;;;;;;5015583;28;20557;-69
2023/04/01 12:53:25;;;;;;;9.27;8.60;;;11.00;99.90;;;;;;5016113;28;20471;-69
2023/04/01 12:55:54;;;;;;;11.30;10.30;;;10.90;99.90;;;;;;5021168;28;20461;-71
2023/04/01 12:58:45;;;;;;;11.20;10.30;;;10.80;99.90;;;;;;5024327;28;20866;-69
2023/04/01 13:01:31;;;;;;;10.83;10.03;;;10.70;99.90;;;;;;5019939;28;20467;-71
2023/04/01 13:04:33;;;;;;;12.63;11.70;;;10.80;99.90;;;;;;5019522;28;20464;-72
2023/04/01 13:07:34;;;;;;;12.60;11.70;;;10.70;99.90;;;;;;5015928;28;20985;-71
2023/04/01 13:10:10;;;;;;;11.30;10.40;;;10.70;99.90;;;;;;5014401;28;20799;-69
2023/04/01 13:12:53;;;;;;;12.70;11.70;;;10.70;99.90;;;;;;5023111;28;20469;-70
2023/04/01 13:15:29;;;;;;;12.33;10.63;;;10.80;99.90;;;;;;5025409;28;20739;-70
2023/04/01 13:18:07;;;;;;;11.50;10.33;;;10.90;99.90;;;;;;5022416;28;20669;-72
2023/04/01 13:20:44;;;;;;;11.07;10.27;;;11.00;99.90;;;;;;5019138;28;20479;-69
2023/04/01 13:23:21;;;;;;;10.80;9.90;;;11.00;99.90;;;;;;5019631;28;21018;-70
2023/04/01 13:25:55;;;;;;;10.47;9.57;;;11.00;99.90;;;;;;5017942;28;20468;-70
2023/04/01 13:28:26;;;;;;;10.10;9.40;;;10.90;99.90;;;;;;5020606;28;20475;-69
2023/04/01 13:31:03;;;;;;;10.77;9.97;;;10.90;99.90;;;;;;5023712;28;20866;-68
2023/04/01 13:33:41;;;;;;;9.93;9.33;;;11.00;99.90;;;;;;5022526;28;20575;-69
2023/04/01 13:36:20;;;;;;;10.00;9.20;;;11.00;99.90;;;;;;5019096;28;20471;-69
2023/04/01 13:39:15;;;;;;;10.63;9.63;;;11.00;99.90;;;;;;5019043;28;20470;-69
2023/04/01 13:41:58;;;;;;;9.70;9.00;;;10.90;99.90;;;;;;5014993;28;20869;-69
2023/04/01 13:44:32;;;;;;;9.63;8.93;;;10.90;99.90;;;;;;5019211;28;20465;-69